Terminal Aerodrome Forecast
Issued by NWS

Home | Current Version | Previous Version | Text Only | Print | Product List | Glossary On
Versions: 1 2 3 4 5 6 7 8 9 10 11 12 13 14 15 16 17 18 19 20 21 22 23 24 25
000
FTUS42 KCAE 222000 AAA
TAFDNL
TAF AMD
KDNL 222042Z 2221/2318 35006KT P6SM -SHRA SCT060 OVC100
     FM230000 05005KT P6SM BKN050
      TEMPO 2311/2315 BKN025
     FM231500 06013KT P6SM BKN040=

USA.gov is the U.S. government's official web portal to all federal, state and local government web resources and services.